sensor_id;sensor_type;location;lat;lon;timestamp;P1;durP1;ratioP1;P2;durP2;ratioP2
52294;SDS011;38243;53.212;6.574;2024-03-25T00:00:09;3.27;;;1.10;;
52294;SDS011;38243;53.212;6.574;2024-03-25T00:02:38;4.80;;;1.20;;
52294;SDS011;38243;53.212;6.574;2024-03-25T00:05:05;4.05;;;1.10;;
52294;SDS011;38243;53.212;6.574;2024-03-25T00:07:35;4.17;;;1.03;;
52294;SDS011;38243;53.212;6.574;2024-03-25T00:10:01;3.72;;;1.08;;
52294;SDS011;38243;53.212;6.574;2024-03-25T00:12:27;3.80;;;1.23;;
52294;SDS011;38243;53.212;6.574;2024-03-25T00:14:53;4.15;;;0.98;;
52294;SDS011;38243;53.212;6.574;2024-03-25T00:17:19;3.17;;;1.20;;
52294;SDS011;38243;53.212;6.574;2024-03-25T00:19:48;3.10;;;0.90;;
52294;SDS011;38243;53.212;6.574;2024-03-25T00:22:17;4.10;;;1.08;;
52294;SDS011;38243;53.212;6.574;2024-03-25T00:24:44;4.05;;;1.25;;
52294;SDS011;38243;53.212;6.574;2024-03-25T00:27:11;3.58;;;1.02;;
52294;SDS011;38243;53.212;6.574;2024-03-25T00:29:40;2.88;;;0.93;;
52294;SDS011;38243;53.212;6.574;2024-03-25T00:32:06;3.73;;;1.20;;
52294;SDS011;38243;53.212;6.574;2024-03-25T00:34:32;3.13;;;1.10;;
52294;SDS011;38243;53.212;6.574;2024-03-25T00:36:59;3.73;;;1.27;;
52294;SDS011;38243;53.212;6.574;2024-03-25T00:39:25;3.25;;;0.90;;
52294;SDS011;38243;53.212;6.574;2024-03-25T00:41:52;3.42;;;1.05;;
52294;SDS011;38243;53.212;6.574;2024-03-25T00:44:18;3.25;;;1.10;;
52294;SDS011;38243;53.212;6.574;2024-03-25T00:46:44;3.38;;;0.90;;
52294;SDS011;38243;53.212;6.574;2024-03-25T00:49:10;4.40;;;1.00;;
52294;SDS011;38243;53.212;6.574;2024-03-25T00:51:36;2.97;;;0.90;;
52294;SDS011;38243;53.212;6.574;2024-03-25T00:54:02;4.28;;;1.08;;
52294;SDS011;38243;53.212;6.574;2024-03-25T00:56:28;3.35;;;0.82;;
52294;SDS011;38243;53.212;6.574;2024-03-25T00:58:55;3.45;;;1.02;;
52294;SDS011;38243;53.212;6.574;2024-03-25T01:01:23;4.43;;;1.10;;
52294;SDS011;38243;53.212;6.574;2024-03-25T01:03:49;3.03;;;1.00;;
52294;SDS011;38243;53.212;6.574;2024-03-25T01:06:14;6.18;;;0.90;;
52294;SDS011;38243;53.212;6.574;2024-03-25T01:08:40;4.83;;;1.00;;
52294;SDS011;38243;53.212;6.574;2024-03-25T01:11:06;5.68;;;1.10;;
52294;SDS011;38243;53.212;6.574;2024-03-25T01:13:32;2.63;;;0.87;;
52294;SDS011;38243;53.212;6.574;2024-03-25T01:15:57;3.08;;;1.02;;
52294;SDS011;38243;53.212;6.574;2024-03-25T01:18:23;4.50;;;1.10;;
52294;SDS011;38243;53.212;6.574;2024-03-25T01:20:49;3.13;;;1.10;;
52294;SDS011;38243;53.212;6.574;2024-03-25T01:23:15;3.00;;;1.00;;
52294;SDS011;38243;53.212;6.574;2024-03-25T01:25:41;2.25;;;0.93;;
52294;SDS011;38243;53.212;6.574;2024-03-25T01:28:07;3.17;;;0.97;;
52294;SDS011;38243;53.212;6.574;2024-03-25T01:30:32;3.30;;;0.90;;
52294;SDS011;38243;53.212;6.574;2024-03-25T01:33:00;4.82;;;0.98;;
52294;SDS011;38243;53.212;6.574;2024-03-25T01:35:26;3.27;;;1.00;;
52294;SDS011;38243;53.212;6.574;2024-03-25T01:37:52;3.47;;;1.10;;
52294;SDS011;38243;53.212;6.574;2024-03-25T01:40:18;2.33;;;0.80;;
52294;SDS011;38243;53.212;6.574;2024-03-25T01:42:54;5.23;;;1.00;;
52294;SDS011;38243;53.212;6.574;2024-03-25T01:45:27;3.03;;;1.03;;
52294;SDS011;38243;53.212;6.574;2024-03-25T01:47:56;2.45;;;0.98;;
52294;SDS011;38243;53.212;6.574;2024-03-25T01:50:22;2.92;;;0.80;;
52294;SDS011;38243;53.212;6.574;2024-03-25T01:52:49;3.90;;;0.80;;
52294;SDS011;38243;53.212;6.574;2024-03-25T01:55:17;4.55;;;1.10;;
52294;SDS011;38243;53.212;6.574;2024-03-25T01:57:45;1.98;;;0.70;;
52294;SDS011;38243;53.212;6.574;2024-03-25T02:00:12;3.10;;;0.90;;
52294;SDS011;38243;53.212;6.574;2024-03-25T02:02:42;4.45;;;1.10;;
52294;SDS011;38243;53.212;6.574;2024-03-25T02:05:18;3.90;;;1.15;;
52294;SDS011;38243;53.212;6.574;2024-03-25T02:07:45;3.33;;;1.30;;
52294;SDS011;38243;53.212;6.574;2024-03-25T02:10:12;2.92;;;1.05;;
52294;SDS011;38243;53.212;6.574;2024-03-25T02:12:41;4.30;;;1.20;;
52294;SDS011;38243;53.212;6.574;2024-03-25T02:15:07;4.78;;;1.38;;
52294;SDS011;38243;53.212;6.574;2024-03-25T02:17:34;1.83;;;0.70;;
52294;SDS011;38243;53.212;6.574;2024-03-25T02:20:00;3.55;;;1.02;;
52294;SDS011;38243;53.212;6.574;2024-03-25T02:22:28;2.65;;;1.02;;
52294;SDS011;38243;53.212;6.574;2024-03-25T02:24:55;3.40;;;0.90;;
52294;SDS011;38243;53.212;6.574;2024-03-25T02:27:22;2.85;;;0.88;;
52294;SDS011;38243;53.212;6.574;2024-03-25T02:29:49;3.90;;;1.00;;
52294;SDS011;38243;53.212;6.574;2024-03-25T02:32:15;3.10;;;0.82;;
52294;SDS011;38243;53.212;6.574;2024-03-25T02:34:45;4.43;;;1.10;;
52294;SDS011;38243;53.212;6.574;2024-03-25T02:37:17;3.90;;;0.90;;
52294;SDS011;38243;53.212;6.574;2024-03-25T02:39:44;3.07;;;0.87;;
52294;SDS011;38243;53.212;6.574;2024-03-25T02:42:10;3.90;;;0.90;;
52294;SDS011;38243;53.212;6.574;2024-03-25T02:44:35;2.85;;;0.88;;
52294;SDS011;38243;53.212;6.574;2024-03-25T02:47:02;4.68;;;1.17;;
52294;SDS011;38243;53.212;6.574;2024-03-25T02:49:29;2.92;;;1.02;;
52294;SDS011;38243;53.212;6.574;2024-03-25T02:51:54;3.33;;;1.10;;
52294;SDS011;38243;53.212;6.574;2024-03-25T02:54:20;3.75;;;0.93;;
52294;SDS011;38243;53.212;6.574;2024-03-25T02:56:47;3.58;;;1.08;;
52294;SDS011;38243;53.212;6.574;2024-03-25T02:59:13;4.45;;;1.17;;
52294;SDS011;38243;53.212;6.574;2024-03-25T03:01:38;3.50;;;0.70;;
52294;SDS011;38243;53.212;6.574;2024-03-25T03:04:04;2.58;;;0.60;;
52294;SDS011;38243;53.212;6.574;2024-03-25T03:06:30;3.40;;;0.80;;
52294;SDS011;38243;53.212;6.574;2024-03-25T03:08:55;3.72;;;1.02;;
52294;SDS011;38243;53.212;6.574;2024-03-25T03:11:21;2.93;;;0.80;;
52294;SDS011;38243;53.212;6.574;2024-03-25T03:13:47;2.28;;;0.70;;
52294;SDS011;38243;53.212;6.574;2024-03-25T03:16:12;3.03;;;0.97;;
52294;SDS011;38243;53.212;6.574;2024-03-25T03:18:39;2.85;;;1.02;;
52294;SDS011;38243;53.212;6.574;2024-03-25T03:21:05;3.72;;;0.80;;
52294;SDS011;38243;53.212;6.574;2024-03-25T03:23:30;2.92;;;0.70;;
52294;SDS011;38243;53.212;6.574;2024-03-25T03:25:56;4.20;;;0.87;;
52294;SDS011;38243;53.212;6.574;2024-03-25T03:28:24;2.53;;;0.70;;
52294;SDS011;38243;53.212;6.574;2024-03-25T03:30:50;3.85;;;0.98;;
52294;SDS011;38243;53.212;6.574;2024-03-25T03:33:16;2.60;;;0.80;;
52294;SDS011;38243;53.212;6.574;2024-03-25T03:35:42;2.70;;;0.90;;
52294;SDS011;38243;53.212;6.574;2024-03-25T03:38:08;2.35;;;0.88;;
52294;SDS011;38243;53.212;6.574;2024-03-25T03:40:34;3.15;;;0.70;;
52294;SDS011;38243;53.212;6.574;2024-03-25T03:42:59;4.30;;;0.90;;
52294;SDS011;38243;53.212;6.574;2024-03-25T03:45:25;3.70;;;0.77;;
52294;SDS011;38243;53.212;6.574;2024-03-25T03:47:51;2.20;;;0.50;;
52294;SDS011;38243;53.212;6.574;2024-03-25T03:50:17;2.58;;;0.82;;
52294;SDS011;38243;53.212;6.574;2024-03-25T03:52:43;3.85;;;1.10;;
52294;SDS011;38243;53.212;6.574;2024-03-25T03:55:08;2.83;;;0.70;;
52294;SDS011;38243;53.212;6.574;2024-03-25T03:57:35;3.43;;;0.90;;
52294;SDS011;38243;53.212;6.574;2024-03-25T04:00:01;2.95;;;1.00;;
52294;SDS011;38243;53.212;6.574;2024-03-25T04:02:27;3.03;;;0.80;;
52294;SDS011;38243;53.212;6.574;2024-03-25T04:04:56;2.63;;;0.90;;
52294;SDS011;38243;53.212;6.574;2024-03-25T04:07:22;4.32;;;0.82;;
52294;SDS011;38243;53.212;6.574;2024-03-25T04:09:53;3.03;;;0.82;;
52294;SDS011;38243;53.212;6.574;2024-03-25T04:12:19;3.77;;;0.67;;
52294;SDS011;38243;53.212;6.574;2024-03-25T04:14:48;2.28;;;0.80;;
52294;SDS011;38243;53.212;6.574;2024-03-25T04:17:18;1.95;;;0.70;;
52294;SDS011;38243;53.212;6.574;2024-03-25T04:19:43;3.83;;;0.87;;
52294;SDS011;38243;53.212;6.574;2024-03-25T04:22:09;3.67;;;0.80;;
52294;SDS011;38243;53.212;6.574;2024-03-25T04:24:35;3.33;;;0.90;;
52294;SDS011;38243;53.212;6.574;2024-03-25T04:27:01;2.20;;;0.70;;
52294;SDS011;38243;53.212;6.574;2024-03-25T04:29:26;2.95;;;0.80;;
52294;SDS011;38243;53.212;6.574;2024-03-25T04:31:54;4.22;;;0.90;;
52294;SDS011;38243;53.212;6.574;2024-03-25T04:34:20;3.75;;;0.88;;
52294;SDS011;38243;53.212;6.574;2024-03-25T04:36:46;3.67;;;0.80;;
52294;SDS011;38243;53.212;6.574;2024-03-25T04:39:11;3.35;;;0.75;;
52294;SDS011;38243;53.212;6.574;2024-03-25T04:41:37;3.50;;;0.93;;
52294;SDS011;38243;53.212;6.574;2024-03-25T04:44:03;3.17;;;0.90;;
52294;SDS011;38243;53.212;6.574;2024-03-25T04:46:28;3.57;;;0.60;;
52294;SDS011;38243;53.212;6.574;2024-03-25T04:48:54;3.25;;;0.73;;
52294;SDS011;38243;53.212;6.574;2024-03-25T04:51:20;3.33;;;0.90;;
52294;SDS011;38243;53.212;6.574;2024-03-25T04:53:46;3.13;;;1.02;;
52294;SDS011;38243;53.212;6.574;2024-03-25T04:56:11;4.10;;;0.90;;
52294;SDS011;38243;53.212;6.574;2024-03-25T04:58:38;2.33;;;0.70;;
52294;SDS011;38243;53.212;6.574;2024-03-25T05:01:04;2.97;;;0.85;;
52294;SDS011;38243;53.212;6.574;2024-03-25T05:03:30;3.05;;;0.80;;
52294;SDS011;38243;53.212;6.574;2024-03-25T05:05:55;2.67;;;0.82;;
52294;SDS011;38243;53.212;6.574;2024-03-25T05:08:21;2.45;;;0.90;;
52294;SDS011;38243;53.212;6.574;2024-03-25T05:10:47;2.33;;;0.70;;
52294;SDS011;38243;53.212;6.574;2024-03-25T05:13:13;2.67;;;0.70;;
52294;SDS011;38243;53.212;6.574;2024-03-25T05:15:39;2.63;;;0.70;;
52294;SDS011;38243;53.212;6.574;2024-03-25T05:18:05;4.57;;;0.90;;
52294;SDS011;38243;53.212;6.574;2024-03-25T05:20:31;2.88;;;0.85;;
52294;SDS011;38243;53.212;6.574;2024-03-25T05:22:56;2.63;;;0.90;;
52294;SDS011;38243;53.212;6.574;2024-03-25T05:25:22;3.40;;;0.90;;
52294;SDS011;38243;53.212;6.574;2024-03-25T05:27:53;4.03;;;1.05;;
52294;SDS011;38243;53.212;6.574;2024-03-25T05:30:19;3.15;;;0.95;;
52294;SDS011;38243;53.212;6.574;2024-03-25T05:32:45;5.00;;;1.20;;
52294;SDS011;38243;53.212;6.574;2024-03-25T05:35:10;3.80;;;0.97;;
52294;SDS011;38243;53.212;6.574;2024-03-25T05:37:36;4.00;;;1.07;;
52294;SDS011;38243;53.212;6.574;2024-03-25T05:40:02;2.95;;;0.88;;
52294;SDS011;38243;53.212;6.574;2024-03-25T05:42:28;4.25;;;0.88;;
52294;SDS011;38243;53.212;6.574;2024-03-25T05:44:54;2.10;;;0.93;;
52294;SDS011;38243;53.212;6.574;2024-03-25T05:47:20;3.53;;;0.73;;
52294;SDS011;38243;53.212;6.574;2024-03-25T05:49:46;2.73;;;0.90;;
52294;SDS011;38243;53.212;6.574;2024-03-25T05:52:12;4.13;;;1.00;;
52294;SDS011;38243;53.212;6.574;2024-03-25T05:54:38;3.20;;;0.87;;
52294;SDS011;38243;53.212;6.574;2024-03-25T05:57:03;3.35;;;0.70;;
52294;SDS011;38243;53.212;6.574;2024-03-25T05:59:29;2.77;;;0.77;;
52294;SDS011;38243;53.212;6.574;2024-03-25T06:01:55;2.88;;;0.70;;
52294;SDS011;38243;53.212;6.574;2024-03-25T06:04:20;2.77;;;0.80;;
52294;SDS011;38243;53.212;6.574;2024-03-25T06:06:46;2.47;;;0.70;;
52294;SDS011;38243;53.212;6.574;2024-03-25T06:09:12;2.27;;;0.83;;
52294;SDS011;38243;53.212;6.574;2024-03-25T06:11:37;3.67;;;0.90;;
52294;SDS011;38243;53.212;6.574;2024-03-25T06:14:03;3.22;;;0.90;;
52294;SDS011;38243;53.212;6.574;2024-03-25T06:16:29;3.07;;;0.93;;
52294;SDS011;38243;53.212;6.574;2024-03-25T06:18:54;3.95;;;0.88;;
52294;SDS011;38243;53.212;6.574;2024-03-25T06:21:20;3.43;;;0.80;;
52294;SDS011;38243;53.212;6.574;2024-03-25T06:23:45;3.42;;;0.93;;
52294;SDS011;38243;53.212;6.574;2024-03-25T06:26:11;2.83;;;0.80;;
52294;SDS011;38243;53.212;6.574;2024-03-25T06:28:37;3.78;;;0.88;;
52294;SDS011;38243;53.212;6.574;2024-03-25T06:31:02;2.30;;;0.80;;
52294;SDS011;38243;53.212;6.574;2024-03-25T06:33:47;4.07;;;1.00;;
52294;SDS011;38243;53.212;6.574;2024-03-25T06:36:31;3.40;;;0.93;;
52294;SDS011;38243;53.212;6.574;2024-03-25T06:38:57;4.82;;;1.05;;
52294;SDS011;38243;53.212;6.574;2024-03-25T06:41:22;4.10;;;1.10;;
52294;SDS011;38243;53.212;6.574;2024-03-25T06:43:48;3.47;;;0.95;;
52294;SDS011;38243;53.212;6.574;2024-03-25T06:46:14;2.30;;;0.70;;
52294;SDS011;38243;53.212;6.574;2024-03-25T06:48:40;4.03;;;0.82;;
52294;SDS011;38243;53.212;6.574;2024-03-25T06:51:06;3.55;;;0.70;;
52294;SDS011;38243;53.212;6.574;2024-03-25T06:53:32;4.13;;;1.00;;
52294;SDS011;38243;53.212;6.574;2024-03-25T06:55:59;2.97;;;0.80;;
52294;SDS011;38243;53.212;6.574;2024-03-25T06:58:27;4.18;;;0.85;;
52294;SDS011;38243;53.212;6.574;2024-03-25T07:00:54;2.72;;;1.00;;
52294;SDS011;38243;53.212;6.574;2024-03-25T07:03:21;3.92;;;0.85;;
52294;SDS011;38243;53.212;6.574;2024-03-25T07:05:48;3.10;;;0.93;;
52294;SDS011;38243;53.212;6.574;2024-03-25T07:08:15;2.80;;;0.68;;
52294;SDS011;38243;53.212;6.574;2024-03-25T07:10:41;4.28;;;0.82;;
52294;SDS011;38243;53.212;6.574;2024-03-25T07:13:07;4.53;;;1.00;;
52294;SDS011;38243;53.212;6.574;2024-03-25T07:15:33;3.63;;;1.10;;
52294;SDS011;38243;53.212;6.574;2024-03-25T07:17:59;13.63;;;1.10;;
52294;SDS011;38243;53.212;6.574;2024-03-25T07:20:25;9.18;;;1.48;;
52294;SDS011;38243;53.212;6.574;2024-03-25T07:22:52;5.43;;;1.40;;
52294;SDS011;38243;53.212;6.574;2024-03-25T07:25:20;6.50;;;1.60;;
52294;SDS011;38243;53.212;6.574;2024-03-25T07:27:46;6.10;;;1.40;;
52294;SDS011;38243;53.212;6.574;2024-03-25T07:30:12;3.77;;;1.10;;
52294;SDS011;38243;53.212;6.574;2024-03-25T07:32:38;5.05;;;1.33;;
52294;SDS011;38243;53.212;6.574;2024-03-25T07:35:04;5.90;;;1.20;;
52294;SDS011;38243;53.212;6.574;2024-03-25T07:37:30;6.13;;;1.23;;
52294;SDS011;38243;53.212;6.574;2024-03-25T07:39:56;5.82;;;1.30;;
52294;SDS011;38243;53.212;6.574;2024-03-25T07:42:22;6.07;;;1.70;;
52294;SDS011;38243;53.212;6.574;2024-03-25T07:44:47;9.68;;;1.38;;
52294;SDS011;38243;53.212;6.574;2024-03-25T07:47:13;6.40;;;1.30;;
52294;SDS011;38243;53.212;6.574;2024-03-25T07:49:39;4.60;;;1.20;;
52294;SDS011;38243;53.212;6.574;2024-03-25T07:52:05;4.80;;;1.23;;
52294;SDS011;38243;53.212;6.574;2024-03-25T07:54:31;7.25;;;1.10;;
52294;SDS011;38243;53.212;6.574;2024-03-25T07:56:57;6.00;;;1.15;;
52294;SDS011;38243;53.212;6.574;2024-03-25T07:59:23;4.07;;;0.90;;
52294;SDS011;38243;53.212;6.574;2024-03-25T08:01:49;3.95;;;0.90;;
52294;SDS011;38243;53.212;6.574;2024-03-25T08:04:15;6.10;;;0.90;;
52294;SDS011;38243;53.212;6.574;2024-03-25T08:06:40;5.28;;;0.98;;
52294;SDS011;38243;53.212;6.574;2024-03-25T08:09:06;7.20;;;1.13;;
52294;SDS011;38243;53.212;6.574;2024-03-25T08:11:32;7.72;;;1.50;;
52294;SDS011;38243;53.212;6.574;2024-03-25T08:13:58;6.03;;;1.20;;
52294;SDS011;38243;53.212;6.574;2024-03-25T08:16:24;4.78;;;1.05;;
52294;SDS011;38243;53.212;6.574;2024-03-25T08:18:50;5.60;;;1.20;;
52294;SDS011;38243;53.212;6.574;2024-03-25T08:21:16;4.78;;;0.90;;
52294;SDS011;38243;53.212;6.574;2024-03-25T08:23:44;4.13;;;0.90;;
52294;SDS011;38243;53.212;6.574;2024-03-25T08:26:10;6.13;;;1.00;;
52294;SDS011;38243;53.212;6.574;2024-03-25T08:28:36;5.68;;;0.80;;
52294;SDS011;38243;53.212;6.574;2024-03-25T08:31:03;3.92;;;1.10;;
52294;SDS011;38243;53.212;6.574;2024-03-25T08:33:29;4.53;;;1.10;;
52294;SDS011;38243;53.212;6.574;2024-03-25T08:35:55;3.28;;;1.00;;
52294;SDS011;38243;53.212;6.574;2024-03-25T08:38:21;2.95;;;0.70;;
52294;SDS011;38243;53.212;6.574;2024-03-25T08:40:46;5.43;;;1.20;;
52294;SDS011;38243;53.212;6.574;2024-03-25T08:43:12;4.53;;;0.80;;
52294;SDS011;38243;53.212;6.574;2024-03-25T08:45:38;4.90;;;1.10;;
52294;SDS011;38243;53.212;6.574;2024-03-25T08:48:04;5.90;;;0.90;;
52294;SDS011;38243;53.212;6.574;2024-03-25T08:50:30;5.45;;;1.10;;
52294;SDS011;38243;53.212;6.574;2024-03-25T08:52:55;5.63;;;0.90;;
52294;SDS011;38243;53.212;6.574;2024-03-25T08:55:21;3.83;;;0.98;;
52294;SDS011;38243;53.212;6.574;2024-03-25T08:57:47;4.67;;;1.00;;
52294;SDS011;38243;53.212;6.574;2024-03-25T09:00:13;5.25;;;0.80;;
52294;SDS011;38243;53.212;6.574;2024-03-25T09:02:39;5.40;;;0.95;;
52294;SDS011;38243;53.212;6.574;2024-03-25T09:05:05;5.73;;;1.10;;
52294;SDS011;38243;53.212;6.574;2024-03-25T09:07:32;4.80;;;0.95;;
52294;SDS011;38243;53.212;6.574;2024-03-25T09:09:57;5.88;;;1.00;;
52294;SDS011;38243;53.212;6.574;2024-03-25T09:12:42;4.25;;;1.00;;
52294;SDS011;38243;53.212;6.574;2024-03-25T09:15:08;4.55;;;0.80;;
52294;SDS011;38243;53.212;6.574;2024-03-25T09:17:35;4.40;;;0.80;;
52294;SDS011;38243;53.212;6.574;2024-03-25T09:20:01;5.43;;;0.85;;
52294;SDS011;38243;53.212;6.574;2024-03-25T09:22:29;4.93;;;1.08;;
52294;SDS011;38243;53.212;6.574;2024-03-25T09:24:55;3.27;;;0.73;;
52294;SDS011;38243;53.212;6.574;2024-03-25T09:27:20;4.77;;;1.23;;
52294;SDS011;38243;53.212;6.574;2024-03-25T09:29:46;3.92;;;0.90;;
52294;SDS011;38243;53.212;6.574;2024-03-25T09:32:12;4.20;;;1.10;;
52294;SDS011;38243;53.212;6.574;2024-03-25T09:34:37;4.38;;;1.08;;
52294;SDS011;38243;53.212;6.574;2024-03-25T09:37:03;5.93;;;0.87;;
52294;SDS011;38243;53.212;6.574;2024-03-25T09:39:29;3.70;;;0.77;;
52294;SDS011;38243;53.212;6.574;2024-03-25T09:41:55;4.22;;;1.13;;
52294;SDS011;38243;53.212;6.574;2024-03-25T09:44:24;3.55;;;0.68;;
52294;SDS011;38243;53.212;6.574;2024-03-25T09:46:51;4.18;;;0.90;;
52294;SDS011;38243;53.212;6.574;2024-03-25T09:49:17;4.03;;;0.90;;
52294;SDS011;38243;53.212;6.574;2024-03-25T09:51:44;4.30;;;0.82;;
52294;SDS011;38243;53.212;6.574;2024-03-25T09:54:09;3.87;;;0.80;;
52294;SDS011;38243;53.212;6.574;2024-03-25T09:56:36;4.30;;;0.77;;
52294;SDS011;38243;53.212;6.574;2024-03-25T09:59:04;4.03;;;0.77;;
52294;SDS011;38243;53.212;6.574;2024-03-25T10:01:30;3.72;;;0.80;;
52294;SDS011;38243;53.212;6.574;2024-03-25T10:03:56;3.97;;;0.90;;
52294;SDS011;38243;53.212;6.574;2024-03-25T10:06:23;2.70;;;0.60;;
52294;SDS011;38243;53.212;6.574;2024-03-25T10:08:52;4.47;;;0.90;;
52294;SDS011;38243;53.212;6.574;2024-03-25T10:11:19;7.85;;;1.15;;
52294;SDS011;38243;53.212;6.574;2024-03-25T10:13:45;8.80;;;1.02;;
52294;SDS011;38243;53.212;6.574;2024-03-25T10:16:10;7.47;;;0.90;;
52294;SDS011;38243;53.212;6.574;2024-03-25T10:18:36;3.88;;;0.70;;
52294;SDS011;38243;53.212;6.574;2024-03-25T10:21:02;3.37;;;0.70;;
52294;SDS011;38243;53.212;6.574;2024-03-25T10:23:29;4.50;;;0.90;;
52294;SDS011;38243;53.212;6.574;2024-03-25T10:25:54;4.27;;;0.93;;
52294;SDS011;38243;53.212;6.574;2024-03-25T10:28:20;4.55;;;0.80;;
52294;SDS011;38243;53.212;6.574;2024-03-25T10:30:46;6.22;;;0.80;;
52294;SDS011;38243;53.212;6.574;2024-03-25T10:33:12;3.35;;;0.68;;
52294;SDS011;38243;53.212;6.574;2024-03-25T10:35:39;4.53;;;0.65;;
52294;SDS011;38243;53.212;6.574;2024-03-25T10:38:06;4.38;;;0.80;;
52294;SDS011;38243;53.212;6.574;2024-03-25T10:40:36;4.47;;;0.73;;
52294;SDS011;38243;53.212;6.574;2024-03-25T10:45:31;2.72;;;0.63;;
52294;SDS011;38243;53.212;6.574;2024-03-25T10:47:59;2.60;;;0.70;;
52294;SDS011;38243;53.212;6.574;2024-03-25T10:50:32;3.22;;;0.73;;
52294;SDS011;38243;53.212;6.574;2024-03-25T10:53:00;3.28;;;0.50;;
52294;SDS011;38243;53.212;6.574;2024-03-25T10:55:29;2.33;;;0.65;;
52294;SDS011;38243;53.212;6.574;2024-03-25T10:57:58;3.40;;;0.70;;
52294;SDS011;38243;53.212;6.574;2024-03-25T11:00:25;2.85;;;0.50;;
52294;SDS011;38243;53.212;6.574;2024-03-25T11:02:51;3.75;;;0.80;;
52294;SDS011;38243;53.212;6.574;2024-03-25T11:05:18;1.88;;;0.50;;
52294;SDS011;38243;53.212;6.574;2024-03-25T11:07:44;1.80;;;0.60;;
52294;SDS011;38243;53.212;6.574;2024-03-25T11:10:11;2.65;;;0.50;;
52294;SDS011;38243;53.212;6.574;2024-03-25T11:12:38;2.63;;;0.70;;
52294;SDS011;38243;53.212;6.574;2024-03-25T11:15:06;2.58;;;0.60;;
52294;SDS011;38243;53.212;6.574;2024-03-25T11:17:35;3.10;;;0.60;;
52294;SDS011;38243;53.212;6.574;2024-03-25T11:22:58;2.53;;;0.50;;
52294;SDS011;38243;53.212;6.574;2024-03-25T11:25:23;2.43;;;0.53;;
52294;SDS011;38243;53.212;6.574;2024-03-25T11:27:48;1.95;;;0.60;;
52294;SDS011;38243;53.212;6.574;2024-03-25T11:30:15;1.45;;;0.50;;
52294;SDS011;38243;53.212;6.574;2024-03-25T11:35:10;3.58;;;0.80;;
52294;SDS011;38243;53.212;6.574;2024-03-25T11:37:39;2.45;;;0.80;;
52294;SDS011;38243;53.212;6.574;2024-03-25T11:40:15;2.10;;;0.60;;
52294;SDS011;38243;53.212;6.574;2024-03-25T11:42:41;1.92;;;0.70;;
52294;SDS011;38243;53.212;6.574;2024-03-25T11:45:17;3.05;;;0.90;;
52294;SDS011;38243;53.212;6.574;2024-03-25T11:47:47;2.70;;;0.80;;
52294;SDS011;38243;53.212;6.574;2024-03-25T11:50:17;1.93;;;0.50;;
52294;SDS011;38243;53.212;6.574;2024-03-25T11:52:43;3.10;;;0.77;;
52294;SDS011;38243;53.212;6.574;2024-03-25T11:55:10;4.00;;;0.70;;
52294;SDS011;38243;53.212;6.574;2024-03-25T11:57:40;1.95;;;0.68;;
52294;SDS011;38243;53.212;6.574;2024-03-25T12:00:07;3.00;;;0.67;;
52294;SDS011;38243;53.212;6.574;2024-03-25T12:02:36;2.10;;;0.60;;
52294;SDS011;38243;53.212;6.574;2024-03-25T12:05:08;2.20;;;0.77;;
52294;SDS011;38243;53.212;6.574;2024-03-25T12:07:34;2.33;;;0.63;;
52294;SDS011;38243;53.212;6.574;2024-03-25T12:10:01;3.10;;;0.97;;
52294;SDS011;38243;53.212;6.574;2024-03-25T12:12:45;3.20;;;0.77;;
52294;SDS011;38243;53.212;6.574;2024-03-25T12:15:11;2.92;;;0.70;;
52294;SDS011;38243;53.212;6.574;2024-03-25T12:17:37;3.35;;;0.73;;
52294;SDS011;38243;53.212;6.574;2024-03-25T12:20:05;2.72;;;0.80;;
52294;SDS011;38243;53.212;6.574;2024-03-25T12:22:36;2.58;;;0.90;;
52294;SDS011;38243;53.212;6.574;2024-03-25T12:25:03;2.03;;;0.70;;
52294;SDS011;38243;53.212;6.574;2024-03-25T12:27:31;3.28;;;0.70;;
52294;SDS011;38243;53.212;6.574;2024-03-25T12:30:06;2.85;;;0.95;;
52294;SDS011;38243;53.212;6.574;2024-03-25T12:32:37;2.90;;;0.87;;
52294;SDS011;38243;53.212;6.574;2024-03-25T12:35:09;6.53;;;1.00;;
52294;SDS011;38243;53.212;6.574;2024-03-25T12:37:36;4.10;;;0.93;;
52294;SDS011;38243;53.212;6.574;2024-03-25T12:40:03;3.30;;;0.82;;
52294;SDS011;38243;53.212;6.574;2024-03-25T12:42:34;6.80;;;1.20;;
52294;SDS011;38243;53.212;6.574;2024-03-25T12:45:00;4.30;;;1.00;;
52294;SDS011;38243;53.212;6.574;2024-03-25T12:47:26;5.57;;;1.50;;
52294;SDS011;38243;53.212;6.574;2024-03-25T12:49:52;4.07;;;0.70;;
52294;SDS011;38243;53.212;6.574;2024-03-25T12:52:17;3.37;;;1.00;;
52294;SDS011;38243;53.212;6.574;2024-03-25T12:54:43;3.45;;;1.00;;
52294;SDS011;38243;53.212;6.574;2024-03-25T12:57:09;4.90;;;0.80;;
52294;SDS011;38243;53.212;6.574;2024-03-25T12:59:36;2.92;;;0.60;;
52294;SDS011;38243;53.212;6.574;2024-03-25T13:02:02;3.58;;;1.00;;
52294;SDS011;38243;53.212;6.574;2024-03-25T13:04:28;3.17;;;0.80;;
52294;SDS011;38243;53.212;6.574;2024-03-25T13:06:53;4.28;;;1.15;;
52294;SDS011;38243;53.212;6.574;2024-03-25T13:09:19;2.87;;;0.67;;
52294;SDS011;38243;53.212;6.574;2024-03-25T13:11:55;3.45;;;0.82;;
52294;SDS011;38243;53.212;6.574;2024-03-25T13:14:24;2.75;;;0.77;;
52294;SDS011;38243;53.212;6.574;2024-03-25T13:16:50;2.80;;;0.88;;
52294;SDS011;38243;53.212;6.574;2024-03-25T13:19:16;3.25;;;0.73;;
52294;SDS011;38243;53.212;6.574;2024-03-25T13:21:42;4.33;;;1.10;;
52294;SDS011;38243;53.212;6.574;2024-03-25T13:24:08;5.47;;;1.33;;
52294;SDS011;38243;53.212;6.574;2024-03-25T13:26:34;4.67;;;1.23;;
52294;SDS011;38243;53.212;6.574;2024-03-25T13:29:00;5.75;;;1.35;;
52294;SDS011;38243;53.212;6.574;2024-03-25T13:31:26;6.97;;;2.03;;
52294;SDS011;38243;53.212;6.574;2024-03-25T13:33:53;9.07;;;4.30;;
52294;SDS011;38243;53.212;6.574;2024-03-25T13:36:18;6.43;;;2.10;;
52294;SDS011;38243;53.212;6.574;2024-03-25T13:38:44;6.57;;;1.45;;
52294;SDS011;38243;53.212;6.574;2024-03-25T13:41:10;4.30;;;1.43;;
52294;SDS011;38243;53.212;6.574;2024-03-25T13:44:00;6.97;;;1.70;;
52294;SDS011;38243;53.212;6.574;2024-03-25T13:46:26;4.50;;;1.20;;
52294;SDS011;38243;53.212;6.574;2024-03-25T13:48:51;7.03;;;1.40;;
52294;SDS011;38243;53.212;6.574;2024-03-25T13:51:17;6.93;;;1.45;;
52294;SDS011;38243;53.212;6.574;2024-03-25T13:53:43;4.80;;;1.40;;
52294;SDS011;38243;53.212;6.574;2024-03-25T13:56:09;6.68;;;1.80;;
52294;SDS011;38243;53.212;6.574;2024-03-25T13:58:34;7.10;;;1.57;;
52294;SDS011;38243;53.212;6.574;2024-03-25T14:01:00;7.28;;;1.30;;
52294;SDS011;38243;53.212;6.574;2024-03-25T14:03:26;4.60;;;1.53;;
52294;SDS011;38243;53.212;6.574;2024-03-25T14:05:52;6.15;;;1.17;;
52294;SDS011;38243;53.212;6.574;2024-03-25T14:08:17;5.30;;;1.33;;
52294;SDS011;38243;53.212;6.574;2024-03-25T14:10:43;6.30;;;1.55;;
52294;SDS011;38243;53.212;6.574;2024-03-25T14:13:09;4.13;;;1.35;;
52294;SDS011;38243;53.212;6.574;2024-03-25T14:15:35;7.30;;;1.40;;
52294;SDS011;38243;53.212;6.574;2024-03-25T14:18:00;5.07;;;1.38;;
52294;SDS011;38243;53.212;6.574;2024-03-25T14:20:27;4.75;;;1.40;;
52294;SDS011;38243;53.212;6.574;2024-03-25T14:22:52;6.23;;;1.57;;
52294;SDS011;38243;53.212;6.574;2024-03-25T14:25:18;5.13;;;1.60;;
52294;SDS011;38243;53.212;6.574;2024-03-25T14:27:44;6.30;;;1.38;;
52294;SDS011;38243;53.212;6.574;2024-03-25T14:30:10;6.15;;;1.27;;
52294;SDS011;38243;53.212;6.574;2024-03-25T14:32:36;5.78;;;1.50;;
52294;SDS011;38243;53.212;6.574;2024-03-25T14:35:05;4.85;;;1.30;;
52294;SDS011;38243;53.212;6.574;2024-03-25T14:37:31;5.53;;;1.40;;
52294;SDS011;38243;53.212;6.574;2024-03-25T14:39:59;6.22;;;1.30;;
52294;SDS011;38243;53.212;6.574;2024-03-25T14:42:25;6.28;;;1.50;;
52294;SDS011;38243;53.212;6.574;2024-03-25T14:44:51;7.00;;;1.70;;
52294;SDS011;38243;53.212;6.574;2024-03-25T14:47:16;6.68;;;1.50;;
52294;SDS011;38243;53.212;6.574;2024-03-25T14:49:42;8.17;;;1.57;;
52294;SDS011;38243;53.212;6.574;2024-03-25T14:52:08;6.32;;;1.27;;